createdAt,value
2022-12-06T00:00:43.071Z,17.67
2022-12-06T00:01:46.703Z,17.42
2022-12-06T00:02:49.460Z,17.30
2022-12-06T00:03:54.972Z,16.60
2022-12-06T00:04:57.750Z,16.65
2022-12-06T00:06:05.103Z,17.27
2022-12-06T00:07:08.029Z,16.60
2022-12-06T00:08:10.910Z,16.35
2022-12-06T00:09:19.774Z,16.45
2022-12-06T00:10:22.666Z,16.90
2022-12-06T00:11:31.027Z,17.35
2022-12-06T00:12:33.719Z,16.50
2022-12-06T00:13:36.806Z,16.50
2022-12-06T00:14:39.440Z,16.30
2022-12-06T00:15:42.170Z,17.60
2022-12-06T00:16:45.474Z,16.77
2022-12-06T00:17:48.206Z,19.00
2022-12-06T00:18:50.929Z,16.02
2022-12-06T00:19:53.585Z,17.13
2022-12-06T00:20:56.357Z,16.58
2022-12-06T00:21:58.948Z,16.70
2022-12-06T00:23:01.665Z,18.35
2022-12-06T00:24:15.467Z,18.08
2022-12-06T00:25:18.139Z,16.80
2022-12-06T00:26:21.767Z,15.80
2022-12-06T00:27:24.511Z,17.40
2022-12-06T00:28:27.468Z,17.40
2022-12-06T00:29:30.188Z,17.83
2022-12-06T00:30:32.869Z,16.40
2022-12-06T00:31:35.768Z,16.23
2022-12-06T00:32:38.697Z,16.95
2022-12-06T00:33:41.355Z,18.25
2022-12-06T00:34:44.226Z,19.13
2022-12-06T00:35:55.913Z,18.25
2022-12-06T00:36:58.714Z,17.95
2022-12-06T00:38:01.585Z,16.67
2022-12-06T00:39:06.729Z,17.10
2022-12-06T00:40:09.777Z,18.15
2022-12-06T00:41:20.744Z,18.58
2022-12-06T00:42:23.387Z,16.40
2022-12-06T00:43:26.989Z,18.00
2022-12-06T00:44:29.837Z,17.63
2022-12-06T00:45:32.501Z,17.70
2022-12-06T00:46:36.211Z,16.65
2022-12-06T00:47:38.988Z,17.40
2022-12-06T00:48:41.741Z,16.50
2022-12-06T00:49:44.472Z,17.40
2022-12-06T00:50:47.121Z,19.35
2022-12-06T00:51:49.877Z,17.35
2022-12-06T00:52:52.504Z,17.05
2022-12-06T00:53:55.643Z,19.08
2022-12-06T00:54:58.277Z,17.55
2022-12-06T00:56:00.994Z,16.38
2022-12-06T00:57:03.729Z,17.77
2022-12-06T00:58:06.396Z,17.15
2022-12-06T00:59:10.274Z,17.13
2022-12-06T01:00:13.658Z,18.17
2022-12-06T01:01:23.120Z,17.85
2022-12-06T01:02:25.943Z,16.60
2022-12-06T01:03:34.853Z,17.90
2022-12-06T01:04:37.854Z,16.10
2022-12-06T01:05:42.579Z,16.13
2022-12-06T01:06:45.272Z,16.52
2022-12-06T01:07:48.039Z,18.27
2022-12-06T01:08:51.008Z,16.63
2022-12-06T01:09:53.696Z,18.50
2022-12-06T01:10:56.515Z,18.13
2022-12-06T01:11:59.229Z,18.27
2022-12-06T01:13:01.986Z,16.48
2022-12-06T01:14:04.969Z,17.50
2022-12-06T01:15:08.224Z,17.13
2022-12-06T01:16:15.329Z,18.20
2022-12-06T01:17:17.992Z,17.17
2022-12-06T01:18:21.776Z,16.63
2022-12-06T01:19:24.932Z,17.25
2022-12-06T01:20:27.671Z,18.38
2022-12-06T01:21:30.539Z,16.70
2022-12-06T01:22:33.459Z,18.45
2022-12-06T01:23:36.717Z,17.67
2022-12-06T01:24:39.414Z,19.02
2022-12-06T01:25:52.246Z,16.80
2022-12-06T01:26:54.884Z,18.17
2022-12-06T01:27:57.519Z,17.02
2022-12-06T01:29:01.053Z,17.27
2022-12-06T01:30:05.255Z,18.27
2022-12-06T01:31:08.260Z,18.20
2022-12-06T01:32:11.073Z,18.20
2022-12-06T01:33:13.798Z,17.75
2022-12-06T01:34:17.579Z,16.83
2022-12-06T01:35:20.241Z,18.33
2022-12-06T01:36:25.489Z,18.02
2022-12-06T01:37:28.082Z,17.45
2022-12-06T01:38:30.838Z,17.60
2022-12-06T01:39:33.469Z,18.02
2022-12-06T01:40:45.640Z,17.45
2022-12-06T01:41:48.791Z,17.55
2022-12-06T01:42:51.526Z,18.65
2022-12-06T01:43:54.994Z,17.73
2022-12-06T01:45:01.957Z,17.90
2022-12-06T01:46:29.633Z,16.63
2022-12-06T01:47:40.300Z,17.52
2022-12-06T01:48:43.152Z,15.50
2022-12-06T01:49:59.259Z,18.33
2022-12-06T01:51:02.518Z,18.05
2022-12-06T01:52:11.397Z,17.17
2022-12-06T01:53:14.221Z,18.00
2022-12-06T01:54:17.577Z,16.13
2022-12-06T01:55:27.260Z,19.65
2022-12-06T01:56:29.944Z,18.92
2022-12-06T01:57:32.701Z,17.98
2022-12-06T01:58:38.399Z,17.58
2022-12-06T01:59:41.431Z,18.08
2022-12-06T02:00:44.507Z,18.33
2022-12-06T02:01:47.534Z,18.42
2022-12-06T02:02:50.396Z,18.05
2022-12-06T02:03:55.443Z,18.42
2022-12-06T02:04:59.474Z,19.15
2022-12-06T02:06:07.411Z,17.73
2022-12-06T02:07:11.180Z,19.75
2022-12-06T02:08:14.079Z,18.23
2022-12-06T02:09:17.633Z,18.70
2022-12-06T02:10:20.423Z,17.52
2022-12-06T02:11:23.138Z,17.65
2022-12-06T02:12:25.929Z,18.67
2022-12-06T02:13:28.984Z,17.98
2022-12-06T02:14:33.738Z,17.48
2022-12-06T02:15:55.158Z,19.30
2022-12-06T02:17:24.225Z,18.60
2022-12-06T02:18:46.350Z,17.58
2022-12-06T02:20:00.564Z,17.63
2022-12-06T02:21:32.341Z,18.83
2022-12-06T02:22:55.881Z,17.58
2022-12-06T02:24:14.463Z,18.50
2022-12-06T02:25:27.955Z,18.15
2022-12-06T02:26:52.972Z,18.48
2022-12-06T02:28:04.632Z,18.63
2022-12-06T02:29:38.044Z,17.95
2022-12-06T02:31:09.072Z,18.10
2022-12-06T02:32:21.482Z,17.77
2022-12-06T02:33:49.407Z,16.70
2022-12-06T02:35:08.537Z,18.02
2022-12-06T02:36:20.693Z,18.35
2022-12-06T02:37:42.373Z,18.25
2022-12-06T02:38:48.246Z,16.58
2022-12-06T02:40:06.915Z,17.45
2022-12-06T02:41:19.565Z,16.80
2022-12-06T02:42:50.676Z,17.75
2022-12-06T02:45:02.419Z,17.55
2022-12-06T02:46:06.325Z,18.20
2022-12-06T02:47:11.908Z,19.48
2022-12-06T02:48:15.311Z,17.88
2022-12-06T02:49:18.670Z,18.17
2022-12-06T02:50:27.215Z,19.13
2022-12-06T02:51:31.827Z,18.80
2022-12-06T02:52:37.218Z,17.98
2022-12-06T02:53:43.083Z,18.77
2022-12-06T02:54:47.103Z,18.80
2022-12-06T02:55:50.543Z,17.30
2022-12-06T02:56:53.221Z,18.67
2022-12-06T02:57:57.475Z,20.00
2022-12-06T02:59:00.618Z,18.63
2022-12-06T03:00:35.324Z,18.00
2022-12-06T03:01:43.530Z,18.52
2022-12-06T03:02:46.814Z,17.17
2022-12-06T03:04:19.116Z,19.77
2022-12-06T03:05:26.475Z,18.60
2022-12-06T03:06:47.294Z,18.55
2022-12-06T03:07:50.745Z,17.98
2022-12-06T03:08:59.473Z,18.23
2022-12-06T03:10:20.940Z,18.67
2022-12-06T03:11:27.011Z,17.10
2022-12-06T03:12:30.115Z,18.45
2022-12-06T03:13:47.849Z,18.10
2022-12-06T03:15:09.366Z,18.55
2022-12-06T03:16:28.459Z,17.60
2022-12-06T03:17:50.907Z,18.23
2022-12-06T03:19:21.058Z,17.00
2022-12-06T03:20:31.865Z,18.83
2022-12-06T03:22:49.102Z,16.10
2022-12-06T03:23:51.995Z,17.67
2022-12-06T03:24:55.052Z,17.13
2022-12-06T03:26:00.114Z,17.83
2022-12-06T03:27:06.636Z,18.38
2022-12-06T03:28:11.801Z,18.08
2022-12-06T03:29:16.765Z,17.05
2022-12-06T03:30:19.692Z,18.73
2022-12-06T03:31:23.799Z,18.15
2022-12-06T03:32:29.954Z,19.98
2022-12-06T03:33:33.994Z,18.77
2022-12-06T03:34:39.462Z,18.23
2022-12-06T03:35:43.084Z,17.80
2022-12-06T03:36:47.762Z,18.23
2022-12-06T03:37:55.061Z,18.33
2022-12-06T03:39:04.071Z,17.50
2022-12-06T03:40:09.626Z,19.63
2022-12-06T03:41:13.214Z,18.45
2022-12-06T03:42:16.724Z,18.58
2022-12-06T03:43:19.929Z,18.55
2022-12-06T03:44:23.647Z,17.65
2022-12-06T03:45:50.040Z,16.65
2022-12-06T03:46:57.718Z,18.88
2022-12-06T03:48:13.135Z,18.73
2022-12-06T03:49:24.304Z,17.10
2022-12-06T03:50:35.437Z,17.52
2022-12-06T03:51:39.357Z,18.92
2022-12-06T03:52:42.024Z,18.23
2022-12-06T03:53:50.144Z,19.02
2022-12-06T03:54:52.803Z,17.75
2022-12-06T03:55:55.683Z,19.40
2022-12-06T03:56:58.490Z,17.40
2022-12-06T03:58:01.149Z,19.40
2022-12-06T03:59:08.371Z,19.30
2022-12-06T04:00:11.887Z,17.90
2022-12-06T04:01:14.802Z,18.65
2022-12-06T04:02:17.749Z,18.70
2022-12-06T04:03:20.521Z,17.50
2022-12-06T04:04:24.844Z,18.98
2022-12-06T04:05:27.486Z,19.73
2022-12-06T04:06:30.354Z,18.65
2022-12-06T04:07:33.076Z,17.83
2022-12-06T04:08:36.227Z,18.30
2022-12-06T04:09:56.575Z,18.88
2022-12-06T04:10:59.458Z,18.38
2022-12-06T04:12:02.085Z,18.65
2022-12-06T04:13:06.256Z,19.83
2022-12-06T04:14:08.984Z,19.67
2022-12-06T04:15:11.591Z,19.23
2022-12-06T04:16:32.945Z,17.75
2022-12-06T04:17:57.266Z,17.95
2022-12-06T04:19:00.068Z,18.15
2022-12-06T04:20:02.996Z,18.67
2022-12-06T04:21:38.009Z,19.10
2022-12-06T04:22:59.366Z,18.00
2022-12-06T04:24:03.129Z,17.52
2022-12-06T04:25:06.211Z,18.63
2022-12-06T04:26:11.925Z,19.33
2022-12-06T04:27:33.242Z,18.73
2022-12-06T04:28:54.486Z,19.00
2022-12-06T04:30:15.796Z,18.80
2022-12-06T04:31:37.912Z,18.25
2022-12-06T04:32:59.410Z,17.95
2022-12-06T04:34:20.405Z,20.45
2022-12-06T04:35:41.841Z,18.65
2022-12-06T04:37:03.418Z,18.55
2022-12-06T04:38:25.004Z,18.58
2022-12-06T04:39:27.781Z,18.77
2022-12-06T04:40:30.550Z,18.17
2022-12-06T04:41:51.655Z,19.85
2022-12-06T04:43:12.800Z,17.58
2022-12-06T04:44:15.536Z,20.05
2022-12-06T04:45:18.221Z,18.05
2022-12-06T04:46:20.986Z,17.90
2022-12-06T04:47:23.807Z,19.67
2022-12-06T04:48:26.556Z,18.85
2022-12-06T04:49:29.338Z,19.38
2022-12-06T04:50:32.009Z,18.70
2022-12-06T04:51:35.149Z,19.35
2022-12-06T04:52:38.048Z,18.90
2022-12-06T04:53:40.885Z,19.88
2022-12-06T04:54:43.564Z,17.45
2022-12-06T04:55:47.219Z,19.25
2022-12-06T04:56:49.903Z,19.40
2022-12-06T04:57:52.525Z,20.85
2022-12-06T04:58:55.222Z,19.33
2022-12-06T04:59:58.214Z,19.40
2022-12-06T05:01:01.329Z,18.05
2022-12-06T05:02:04.210Z,19.08
2022-12-06T05:03:07.077Z,18.90
2022-12-06T05:04:09.903Z,20.38
2022-12-06T05:05:12.929Z,19.38
2022-12-06T05:06:15.787Z,18.15
2022-12-06T05:07:18.473Z,19.40
2022-12-06T05:08:21.363Z,18.58
2022-12-06T05:09:24.027Z,19.25
2022-12-06T05:10:26.933Z,19.38
2022-12-06T05:11:29.985Z,19.10
2022-12-06T05:12:32.716Z,18.40
2022-12-06T05:13:36.092Z,18.42
2022-12-06T05:14:38.756Z,16.98
2022-12-06T05:15:49.057Z,19.52
2022-12-06T05:16:51.945Z,19.02
2022-12-06T05:17:54.760Z,19.02
2022-12-06T05:18:57.459Z,18.30
2022-12-06T05:20:00.613Z,17.88
2022-12-06T05:21:07.818Z,18.23
2022-12-06T05:22:10.563Z,18.52
2022-12-06T05:23:13.398Z,19.10
2022-12-06T05:24:16.275Z,17.70
2022-12-06T05:25:18.990Z,17.50
2022-12-06T05:26:24.270Z,18.25
2022-12-06T05:27:29.569Z,19.52
2022-12-06T05:28:35.671Z,19.52
2022-12-06T05:29:38.450Z,18.60
2022-12-06T05:30:41.186Z,19.13
2022-12-06T05:31:43.912Z,19.45
2022-12-06T05:32:46.675Z,18.98
2022-12-06T05:33:50.050Z,19.58
2022-12-06T05:34:52.825Z,19.10
2022-12-06T05:35:55.722Z,18.95
2022-12-06T05:36:58.408Z,20.08
2022-12-06T05:38:01.125Z,20.05
2022-12-06T05:39:04.481Z,20.00
2022-12-06T05:40:07.754Z,21.35
2022-12-06T05:41:10.520Z,19.25
2022-12-06T05:42:20.400Z,20.48
2022-12-06T05:43:24.998Z,19.33
2022-12-06T05:44:27.788Z,20.67
2022-12-06T05:45:30.659Z,20.35
2022-12-06T05:46:33.320Z,20.17
2022-12-06T05:47:36.036Z,20.08
2022-12-06T05:48:38.890Z,19.70
2022-12-06T05:49:41.714Z,19.83
2022-12-06T05:50:46.785Z,19.70
2022-12-06T05:51:49.474Z,18.67
2022-12-06T05:52:55.921Z,19.17
2022-12-06T05:53:58.631Z,19.88
2022-12-06T05:55:01.361Z,18.90
2022-12-06T05:56:11.964Z,19.17
2022-12-06T05:57:14.615Z,18.52
2022-12-06T05:58:19.116Z,19.38
2022-12-06T05:59:21.903Z,19.98
2022-12-06T06:00:24.977Z,18.55
2022-12-06T06:01:27.637Z,19.45
2022-12-06T06:02:30.353Z,17.98
2022-12-06T06:03:33.956Z,19.00
2022-12-06T06:04:36.782Z,17.35
2022-12-06T06:05:48.637Z,19.15
2022-12-06T06:06:51.566Z,18.80
2022-12-06T06:07:55.223Z,19.00
2022-12-06T06:08:58.007Z,20.55
2022-12-06T06:10:00.823Z,18.50
2022-12-06T06:11:03.741Z,18.55
2022-12-06T06:12:12.109Z,19.13
2022-12-06T06:13:15.302Z,17.55
2022-12-06T06:14:17.969Z,18.90
2022-12-06T06:15:20.630Z,20.02
2022-12-06T06:16:23.301Z,20.00
2022-12-06T06:17:26.387Z,20.17
2022-12-06T06:18:28.995Z,19.73
2022-12-06T06:19:31.655Z,21.58
2022-12-06T06:20:34.532Z,19.77
2022-12-06T06:21:37.281Z,19.55
2022-12-06T06:22:42.492Z,18.98
2022-12-06T06:23:45.108Z,18.67
2022-12-06T06:24:47.778Z,19.58
2022-12-06T06:25:50.514Z,18.80
2022-12-06T06:26:53.173Z,19.60
2022-12-06T06:27:55.883Z,18.05
2022-12-06T06:28:58.753Z,18.80
2022-12-06T06:30:01.620Z,20.48
2022-12-06T06:31:06.097Z,19.85
2022-12-06T06:32:08.901Z,19.35
2022-12-06T06:33:11.761Z,19.08
2022-12-06T06:34:14.619Z,19.85
2022-12-06T06:35:17.454Z,18.67
2022-12-06T06:36:20.199Z,19.65
2022-12-06T06:37:22.906Z,19.33
2022-12-06T06:38:26.071Z,19.65
2022-12-06T06:39:28.672Z,18.98
2022-12-06T06:40:31.869Z,19.45
2022-12-06T06:41:34.551Z,17.33
2022-12-06T06:42:37.478Z,19.17
2022-12-06T06:43:40.686Z,20.40
2022-12-06T06:44:43.882Z,18.48
2022-12-06T06:45:54.731Z,18.20
2022-12-06T06:46:57.445Z,18.38
2022-12-06T06:48:00.072Z,17.73
2022-12-06T06:49:03.076Z,19.20
2022-12-06T06:50:07.052Z,18.02
2022-12-06T06:51:11.928Z,19.92
2022-12-06T06:52:14.968Z,17.85
2022-12-06T06:53:18.028Z,18.92
2022-12-06T06:54:20.811Z,17.30
2022-12-06T06:55:23.654Z,19.13
2022-12-06T06:56:26.590Z,19.23
2022-12-06T06:57:29.277Z,21.30
2022-12-06T06:58:32.096Z,19.88
2022-12-06T06:59:34.876Z,18.60
2022-12-06T07:00:37.541Z,18.83
2022-12-06T07:01:40.461Z,18.85
2022-12-06T07:02:43.161Z,17.42
2022-12-06T07:03:46.104Z,19.40
2022-12-06T07:04:49.949Z,19.05
2022-12-06T07:05:55.950Z,18.77
2022-12-06T07:06:58.598Z,19.15
2022-12-06T07:08:01.400Z,18.70
2022-12-06T07:09:04.374Z,18.80
2022-12-06T07:10:07.766Z,18.08
2022-12-06T07:11:12.182Z,17.17
2022-12-06T07:12:15.530Z,16.90
2022-12-06T07:13:19.018Z,17.52
2022-12-06T07:14:21.712Z,17.60
2022-12-06T07:15:24.316Z,17.70
2022-12-06T07:16:27.356Z,17.80
2022-12-06T07:17:30.202Z,17.70
2022-12-06T07:18:33.256Z,19.35
2022-12-06T07:19:35.953Z,18.00
2022-12-06T07:20:38.567Z,17.02
2022-12-06T07:21:41.233Z,19.20
2022-12-06T07:22:44.022Z,17.73
2022-12-06T07:23:46.813Z,17.75
2022-12-06T07:24:52.490Z,17.63
2022-12-06T07:26:04.673Z,16.73
2022-12-06T07:27:07.301Z,17.42
2022-12-06T07:28:09.977Z,17.17
2022-12-06T07:29:12.754Z,16.60
2022-12-06T07:30:17.109Z,17.90
2022-12-06T07:31:22.846Z,16.35
2022-12-06T07:32:25.738Z,17.95
2022-12-06T07:33:28.364Z,19.15
2022-12-06T07:34:31.177Z,18.25
2022-12-06T07:36:03.528Z,17.10
2022-12-06T07:36:56.955Z,18.27
2022-12-06T07:37:59.602Z,17.90
2022-12-06T07:39:02.306Z,18.17
2022-12-06T07:40:05.998Z,18.23
2022-12-06T07:41:31.701Z,18.38
2022-12-06T07:42:53.388Z,17.77
2022-12-06T07:44:15.616Z,18.50
2022-12-06T07:45:18.418Z,17.67
2022-12-06T07:46:21.118Z,17.77
2022-12-06T07:47:23.993Z,20.05
2022-12-06T07:48:26.746Z,19.80
2022-12-06T07:49:29.699Z,18.02
2022-12-06T07:50:33.172Z,19.48
2022-12-06T07:51:35.908Z,16.58
2022-12-06T07:52:39.704Z,18.35
2022-12-06T07:53:42.999Z,18.77
2022-12-06T07:54:45.750Z,17.92
2022-12-06T07:55:48.479Z,17.35
2022-12-06T07:56:51.528Z,16.48
2022-12-06T07:57:54.326Z,16.30
2022-12-06T07:58:56.963Z,15.55
2022-12-06T08:00:00.109Z,17.35
2022-12-06T08:01:04.595Z,16.65
2022-12-06T08:02:18.510Z,15.73
2022-12-06T08:03:21.295Z,17.25
2022-12-06T08:04:24.317Z,17.27
2022-12-06T08:05:27.498Z,15.48
2022-12-06T08:06:31.043Z,18.17
2022-12-06T08:07:33.749Z,17.92
2022-12-06T08:08:37.049Z,18.20
2022-12-06T08:09:40.545Z,17.55
2022-12-06T08:10:43.235Z,17.65
2022-12-06T08:11:46.034Z,18.23
2022-12-06T08:12:48.669Z,17.77
2022-12-06T08:13:51.564Z,18.13
2022-12-06T08:14:59.366Z,18.35
2022-12-06T08:16:10.651Z,19.27
2022-12-06T08:17:13.389Z,20.05
2022-12-06T08:18:16.068Z,20.58
2022-12-06T08:19:19.120Z,19.77
2022-12-06T08:20:21.701Z,19.67
2022-12-06T08:21:26.295Z,19.85
2022-12-06T08:22:29.055Z,21.10
2022-12-06T08:23:34.415Z,18.25
2022-12-06T08:24:37.419Z,20.35
2022-12-06T08:25:40.163Z,19.98
2022-12-06T08:26:42.870Z,18.98
2022-12-06T08:27:45.530Z,19.92
2022-12-06T08:28:48.304Z,20.33
2022-12-06T08:29:51.140Z,20.40
2022-12-06T08:30:55.988Z,19.52
2022-12-06T08:32:02.435Z,19.33
2022-12-06T08:33:05.218Z,20.27
2022-12-06T08:34:08.192Z,19.48
2022-12-06T08:35:10.905Z,18.77
2022-12-06T08:36:16.398Z,19.48
2022-12-06T08:37:19.259Z,18.55
2022-12-06T08:38:21.934Z,19.13
2022-12-06T08:39:25.814Z,18.10
2022-12-06T08:40:28.523Z,17.08
2022-12-06T08:41:49.764Z,19.83
2022-12-06T08:42:52.638Z,18.30
2022-12-06T08:43:56.274Z,18.55
2022-12-06T08:44:58.907Z,16.48
2022-12-06T08:46:01.645Z,17.48
2022-12-06T08:47:04.641Z,17.35
2022-12-06T08:48:07.419Z,17.52
2022-12-06T08:49:11.483Z,18.20
2022-12-06T08:50:14.098Z,17.27
2022-12-06T08:51:17.109Z,17.02
2022-12-06T08:52:19.867Z,18.08
2022-12-06T08:53:22.467Z,17.98
2022-12-06T08:54:26.643Z,17.38
2022-12-06T08:55:29.349Z,16.75
2022-12-06T08:56:32.205Z,15.95
2022-12-06T08:57:35.119Z,16.50
2022-12-06T08:58:37.863Z,17.05
2022-12-06T08:59:40.626Z,15.82
2022-12-06T09:00:43.266Z,16.10
2022-12-06T09:01:46.687Z,15.20
2022-12-06T09:02:49.574Z,16.45
2022-12-06T09:03:52.564Z,16.02
2022-12-06T09:04:55.504Z,16.52
2022-12-06T09:06:02.534Z,16.35
2022-12-06T09:07:10.060Z,16.70
2022-12-06T09:08:14.406Z,15.43
2022-12-06T09:09:18.538Z,16.48
2022-12-06T09:10:21.178Z,14.38
2022-12-06T09:11:24.781Z,16.73
2022-12-06T09:12:27.754Z,16.25
2022-12-06T09:13:30.696Z,15.45
2022-12-06T09:14:33.419Z,15.52
2022-12-06T09:15:37.633Z,16.13
2022-12-06T09:16:43.427Z,15.52
2022-12-06T09:17:46.211Z,16.25
2022-12-06T09:18:49.622Z,15.45
2022-12-06T09:19:52.417Z,15.43
2022-12-06T09:20:55.746Z,15.80
2022-12-06T09:21:58.422Z,13.93
2022-12-06T09:23:01.103Z,16.05
2022-12-06T09:24:04.070Z,15.90
2022-12-06T09:25:07.151Z,16.15
2022-12-06T09:26:10.055Z,16.60
2022-12-06T09:27:12.786Z,14.95
2022-12-06T09:28:16.022Z,15.98
2022-12-06T09:29:19.435Z,16.00
2022-12-06T09:30:22.094Z,16.15
2022-12-06T09:31:25.904Z,15.43
2022-12-06T09:32:28.651Z,15.38
2022-12-06T09:33:31.482Z,15.60
2022-12-06T09:34:34.139Z,15.63
2022-12-06T09:35:37.118Z,15.45
2022-12-06T09:36:53.501Z,15.40
2022-12-06T09:37:56.390Z,15.23
2022-12-06T09:39:09.627Z,15.88
2022-12-06T09:40:20.622Z,16.20
2022-12-06T09:41:57.279Z,15.05
2022-12-06T09:43:26.478Z,15.10
2022-12-06T09:44:53.306Z,15.75
2022-12-06T09:46:13.967Z,14.90
2022-12-06T09:47:19.781Z,15.07
2022-12-06T09:48:49.063Z,14.63
2022-12-06T09:50:18.387Z,14.18
2022-12-06T09:51:56.738Z,15.32
2022-12-06T09:53:20.467Z,14.45
2022-12-06T09:54:49.024Z,13.18
2022-12-06T09:56:00.015Z,15.23
2022-12-06T09:57:16.850Z,15.13
2022-12-06T09:58:25.785Z,15.50
2022-12-06T09:59:56.149Z,14.52
2022-12-06T10:01:25.059Z,16.48
2022-12-06T10:02:38.563Z,14.88
2022-12-06T10:04:04.183Z,15.73
2022-12-06T10:05:20.356Z,16.10
2022-12-06T10:06:24.114Z,13.52
2022-12-06T10:08:01.291Z,15.98
2022-12-06T10:09:31.943Z,15.63
2022-12-06T10:11:08.328Z,14.40
2022-12-06T10:12:34.779Z,15.50
2022-12-06T10:13:47.474Z,14.15
2022-12-06T10:15:18.927Z,13.15
2022-12-06T10:16:27.607Z,14.25
2022-12-06T10:17:54.524Z,15.75
2022-12-06T10:19:00.165Z,14.98
2022-12-06T10:20:14.024Z,14.77
2022-12-06T10:21:35.601Z,16.20
2022-12-06T10:23:05.896Z,15.93
2022-12-06T10:24:42.448Z,14.70
2022-12-06T10:25:56.761Z,15.70
2022-12-06T10:27:11.802Z,14.88
2022-12-06T10:28:23.868Z,16.05
2022-12-06T10:29:44.671Z,15.93
2022-12-06T10:30:52.776Z,14.85
2022-12-06T10:31:59.696Z,15.65
2022-12-06T10:33:10.270Z,16.83
2022-12-06T10:34:26.470Z,17.05
2022-12-06T10:35:43.728Z,16.23
2022-12-06T10:37:16.610Z,17.58
2022-12-06T10:38:28.276Z,15.88
2022-12-06T10:39:52.242Z,16.23
2022-12-06T10:41:05.844Z,15.57
2022-12-06T10:42:31.875Z,17.35
2022-12-06T10:43:49.586Z,15.65
2022-12-06T10:45:30.904Z,15.98
2022-12-06T10:47:03.470Z,14.77
2022-12-06T10:48:16.206Z,15.38
2022-12-06T10:49:24.001Z,15.07
2022-12-06T10:50:31.009Z,16.58
2022-12-06T10:51:48.986Z,14.63
2022-12-06T10:53:11.304Z,17.27
2022-12-06T10:54:22.617Z,14.48
2022-12-06T10:55:31.823Z,15.50
2022-12-06T10:56:37.143Z,16.20
2022-12-06T10:57:59.347Z,17.05
2022-12-06T10:59:26.206Z,15.45
2022-12-06T11:00:31.596Z,17.70
2022-12-06T11:01:39.437Z,17.23
2022-12-06T11:03:17.902Z,16.95
2022-12-06T11:04:29.180Z,15.52
2022-12-06T11:05:52.584Z,15.55
2022-12-06T11:07:15.911Z,16.10
2022-12-06T11:08:24.770Z,15.13
2022-12-06T11:09:45.232Z,16.67
2022-12-06T11:10:48.274Z,16.67
2022-12-06T11:11:51.219Z,15.15
2022-12-06T11:13:18.267Z,17.55
2022-12-06T11:14:41.741Z,15.50
2022-12-06T11:15:54.048Z,16.55
2022-12-06T11:17:05.247Z,17.15
2022-12-06T11:18:14.392Z,16.73
2022-12-06T11:19:36.668Z,16.50
2022-12-06T11:21:27.173Z,16.30
2022-12-06T11:22:45.067Z,16.47
2022-12-06T11:23:53.928Z,16.75
2022-12-06T11:25:06.781Z,15.90
2022-12-06T11:26:28.195Z,16.88
2022-12-06T11:27:34.821Z,16.25
2022-12-06T11:28:41.921Z,16.02
2022-12-06T11:29:45.661Z,15.70
2022-12-06T11:30:53.315Z,16.00
2022-12-06T11:32:04.361Z,15.55
2022-12-06T11:33:07.278Z,16.58
2022-12-06T11:34:24.181Z,16.08
2022-12-06T11:35:27.919Z,15.82
2022-12-06T11:36:31.599Z,17.20
2022-12-06T11:37:36.097Z,16.40
2022-12-06T11:38:42.898Z,15.93
2022-12-06T11:39:47.044Z,16.25
2022-12-06T11:40:51.844Z,15.82
2022-12-06T11:41:56.401Z,16.25
2022-12-06T11:43:01.201Z,17.92
2022-12-06T11:44:03.961Z,16.67
2022-12-06T11:45:21.689Z,16.70
2022-12-06T11:46:25.137Z,15.60
2022-12-06T11:47:28.147Z,17.95
2022-12-06T11:48:34.133Z,17.75
2022-12-06T11:49:41.857Z,16.45
2022-12-06T11:50:46.722Z,16.23
2022-12-06T11:51:49.674Z,16.08
2022-12-06T11:53:17.119Z,16.45
2022-12-06T11:54:24.854Z,16.50
2022-12-06T11:55:30.406Z,16.55
2022-12-06T11:56:35.625Z,16.90
2022-12-06T11:57:56.275Z,16.30
2022-12-06T11:59:17.281Z,17.30
2022-12-06T12:01:50.346Z,16.10
2022-12-06T12:02:55.160Z,16.35
2022-12-06T12:03:57.816Z,17.55
2022-12-06T12:05:30.927Z,17.67
2022-12-06T12:06:33.637Z,16.42
2022-12-06T12:07:38.986Z,17.75
2022-12-06T12:08:58.336Z,17.77
2022-12-06T12:10:03.617Z,17.00
2022-12-06T12:11:06.821Z,17.15
2022-12-06T12:12:16.338Z,18.05
2022-12-06T12:13:41.256Z,18.58
2022-12-06T12:14:50.870Z,16.80
2022-12-06T12:15:54.288Z,18.38
2022-12-06T12:17:00.289Z,19.38
2022-12-06T12:18:05.962Z,17.67
2022-12-06T12:19:36.494Z,17.20
2022-12-06T12:20:40.318Z,18.25
2022-12-06T12:21:43.223Z,17.98
2022-12-06T12:22:46.428Z,19.08
2022-12-06T12:23:49.094Z,19.10
2022-12-06T12:26:21.651Z,17.67
2022-12-06T12:27:38.636Z,16.45
2022-12-06T12:28:46.206Z,18.63
2022-12-06T12:30:03.554Z,18.67
2022-12-06T12:31:26.586Z,18.83
2022-12-06T12:32:29.357Z,18.75
2022-12-06T12:33:32.229Z,18.50
2022-12-06T12:34:38.855Z,19.17
2022-12-06T12:36:17.732Z,19.60
2022-12-06T12:37:21.554Z,18.70
2022-12-06T12:38:32.901Z,22.33
2022-12-06T12:39:40.773Z,19.52
2022-12-06T12:41:12.576Z,19.52
2022-12-06T12:42:28.079Z,18.88
2022-12-06T12:43:32.830Z,19.40
2022-12-06T12:44:38.972Z,19.80
2022-12-06T12:46:03.462Z,20.52
2022-12-06T12:47:18.893Z,19.25
2022-12-06T12:48:26.558Z,19.00
2022-12-06T12:49:35.223Z,19.55
2022-12-06T12:50:38.046Z,21.27
2022-12-06T12:51:46.455Z,19.83
2022-12-06T12:52:52.544Z,19.90
2022-12-06T12:54:01.321Z,21.20
2022-12-06T12:55:16.016Z,19.75
2022-12-06T12:56:20.736Z,20.52
2022-12-06T12:57:23.544Z,21.80
2022-12-06T12:58:27.261Z,21.95
2022-12-06T12:59:37.816Z,21.55
2022-12-06T13:00:43.115Z,20.00
2022-12-06T13:01:56.540Z,21.13
2022-12-06T13:03:14.175Z,19.50
2022-12-06T13:04:44.331Z,20.73
2022-12-06T13:05:49.439Z,20.83
2022-12-06T13:07:25.842Z,19.35
2022-12-06T13:08:35.058Z,20.50
2022-12-06T13:10:04.704Z,21.33
2022-12-06T13:11:08.840Z,21.35
2022-12-06T13:12:33.617Z,20.63
2022-12-06T13:13:41.225Z,21.55
2022-12-06T13:14:52.883Z,20.73
2022-12-06T13:15:57.278Z,20.73
2022-12-06T13:17:04.437Z,20.00
2022-12-06T13:18:18.229Z,20.73
2022-12-06T13:19:24.854Z,21.42
2022-12-06T13:20:29.328Z,21.33
2022-12-06T13:21:41.404Z,22.55
2022-12-06T13:22:45.650Z,21.00
2022-12-06T13:23:51.177Z,20.98
2022-12-06T13:25:00.127Z,21.80
2022-12-06T13:26:27.443Z,24.05
2022-12-06T13:27:34.819Z,20.50
2022-12-06T13:28:42.958Z,21.90
2022-12-06T13:30:05.876Z,22.58
2022-12-06T13:31:14.824Z,21.52
2022-12-06T13:32:26.958Z,21.77
2022-12-06T13:33:32.439Z,21.95
2022-12-06T13:34:39.530Z,21.58
2022-12-06T13:35:58.632Z,22.40
2022-12-06T13:37:01.764Z,21.70
2022-12-06T13:38:26.926Z,23.48
2022-12-06T13:39:38.176Z,22.65
2022-12-06T13:40:53.889Z,22.30
2022-12-06T13:42:19.791Z,21.08
2022-12-06T13:43:25.470Z,22.02
2022-12-06T13:44:41.854Z,21.48
2022-12-06T13:45:47.037Z,22.20
2022-12-06T13:46:49.797Z,22.02
2022-12-06T13:47:52.528Z,22.27
2022-12-06T13:49:00.579Z,22.55
2022-12-06T13:50:15.179Z,21.33
2022-12-06T13:51:34.439Z,20.38
2022-12-06T13:52:42.882Z,22.63
2022-12-06T13:54:04.477Z,21.40
2022-12-06T13:55:25.820Z,22.75
2022-12-06T13:56:30.767Z,23.05
2022-12-06T13:57:33.642Z,21.70
2022-12-06T13:58:41.689Z,22.65
2022-12-06T13:59:44.386Z,22.70
2022-12-06T14:00:47.685Z,22.15
2022-12-06T14:01:52.289Z,23.23
2022-12-06T14:02:56.209Z,22.02
2022-12-06T14:04:01.426Z,23.73
2022-12-06T14:05:20.655Z,22.02
2022-12-06T14:06:42.479Z,22.63
2022-12-06T14:07:45.298Z,22.73
2022-12-06T14:08:59.496Z,22.92
2022-12-06T14:10:17.478Z,22.25
2022-12-06T14:11:24.225Z,24.23
2022-12-06T14:12:28.541Z,21.40
2022-12-06T14:13:31.271Z,22.08
2022-12-06T14:14:34.068Z,24.40
2022-12-06T14:15:40.190Z,21.65
2022-12-06T14:16:50.437Z,21.42
2022-12-06T14:18:03.088Z,24.92
2022-12-06T14:19:14.402Z,21.02
2022-12-06T14:20:23.401Z,22.33
2022-12-06T14:21:53.855Z,21.83
2022-12-06T14:22:56.645Z,21.35
2022-12-06T14:23:59.372Z,22.38
2022-12-06T14:25:23.455Z,20.38
2022-12-06T14:26:28.656Z,21.17
2022-12-06T14:27:34.195Z,23.60
2022-12-06T14:28:36.930Z,19.35
2022-12-06T14:29:40.659Z,20.42
2022-12-06T14:30:44.521Z,21.40
2022-12-06T14:31:50.029Z,21.85
2022-12-06T14:32:57.739Z,19.83
2022-12-06T14:34:00.571Z,20.08
2022-12-06T14:35:26.475Z,21.17
2022-12-06T14:36:31.652Z,20.85
2022-12-06T14:37:34.366Z,20.85
2022-12-06T14:38:37.110Z,19.60
2022-12-06T14:39:39.787Z,20.50
2022-12-06T14:41:02.656Z,21.38
2022-12-06T14:42:35.381Z,20.83